N123AB ENBO-ZZZZ

Flight info

Callsign N123AB
Flight time N/A
Altitude 1500
Route VFR/07 RT
Aircraft C172

Departure

Time 2026-05-08 15:15
Airport Bodø Airport (ENBO)

Arrival

Time N/A
Airport ZZZZ
Time Latitude Longitude Altitude Speed Heading
2026-05-08 15:04 67.27140 14.35979 37 ft 0 kts 77°
2026-05-08 15:11 67.27140 14.35980 37 ft 0 kts 77°
2026-05-08 15:12 67.27133 14.36011 38 ft 1 kts 155°
2026-05-08 15:12 67.27087 14.35952 39 ft 16 kts 183°
2026-05-08 15:12 67.27002 14.35832 40 ft 19 kts 259°
2026-05-08 15:12 67.26977 14.35536 41 ft 18 kts 257°
2026-05-08 15:13 67.26947 14.35163 39 ft 21 kts 259°
2026-05-08 15:13 67.26931 14.34998 37 ft 0 kts 248°
2026-05-08 15:13 67.26907 14.34688 33 ft 36 kts 257°
2026-05-08 15:13 67.26856 14.34072 21 ft 35 kts 258°
2026-05-08 15:14 67.26802 14.33438 8 ft 35 kts 238°
2026-05-08 15:14 67.26706 14.33418 8 ft 0 kts 161°
2026-05-08 15:14 67.26685 14.33440 9 ft 15 kts 138°
2026-05-08 15:14 67.26715 14.34051 26 ft 57 kts 73°
2026-05-08 15:15 67.26798 14.35198 189 ft 67 kts 68°
2026-05-08 15:15 67.26914 14.36395 410 ft 68 kts 65°
2026-05-08 15:15 67.27016 14.37557 664 ft 63 kts 69°
2026-05-08 15:15 67.27120 14.38659 853 ft 68 kts 77°
2026-05-08 15:16 67.27206 14.39871 1051 ft 71 kts 72°
2026-05-08 15:16 67.27337 14.41122 1211 ft 78 kts 83°
2026-05-08 15:16 67.26911 14.41901 1347 ft 93 kts 193°
2026-05-08 15:16 67.26434 14.40521 1289 ft 106 kts 235°
2026-05-08 15:17 67.26093 14.38942 1306 ft 97 kts 242°
2026-05-08 15:17 67.25847 14.37265 1240 ft 98 kts 249°
2026-05-08 15:17 67.25685 14.35673 1176 ft 96 kts 253°
2026-05-08 15:17 67.25455 14.34062 1141 ft 96 kts 248°
2026-05-08 15:18 67.25204 14.32601 1130 ft 88 kts 243°
2026-05-08 15:18 67.25075 14.31071 1118 ft 88 kts 262°
2026-05-08 15:18 67.25043 14.29480 1076 ft 87 kts 274°
2026-05-08 15:18 67.25240 14.28191 911 ft 75 kts 336°
2026-05-08 15:19 67.25700 14.27940 745 ft 66 kts 20°
2026-05-08 15:19 67.26118 14.28427 547 ft 72 kts 44°
2026-05-08 15:19 67.26334 14.29620 351 ft 70 kts 75°
2026-05-08 15:19 67.26414 14.30736 226 ft 59 kts 67°
2026-05-08 15:20 67.26503 14.31745 153 ft 62 kts 64°
2026-05-08 15:20 67.26614 14.32970 91 ft 72 kts 70°
2026-05-08 15:20 67.26722 14.34148 27 ft 56 kts 68°
2026-05-08 15:20 67.26799 14.35028 47 ft 50 kts 79°
2026-05-08 15:21 67.26874 14.35899 49 ft 38 kts 58°
2026-05-08 15:21 67.26936 14.35957 46 ft 0 kts 326°